sensor_id;sensor_type;location;lat;lon;timestamp;temperature;humidity
15991;DHT22;8100;50.994;4.538;2023-01-08T00:02:14;10.60;99.90
15991;DHT22;8100;50.994;4.538;2023-01-08T00:05:01;10.60;99.90
15991;DHT22;8100;50.994;4.538;2023-01-08T00:07:49;10.50;99.90
15991;DHT22;8100;50.994;4.538;2023-01-08T00:10:37;10.50;99.90
15991;DHT22;8100;50.994;4.538;2023-01-08T00:13:26;10.60;99.90
15991;DHT22;8100;50.994;4.538;2023-01-08T00:16:15;10.70;99.90
15991;DHT22;8100;50.994;4.538;2023-01-08T00:19:03;10.70;99.90
15991;DHT22;8100;50.994;4.538;2023-01-08T00:21:50;10.70;99.90
15991;DHT22;8100;50.994;4.538;2023-01-08T00:24:37;10.60;99.90
15991;DHT22;8100;50.994;4.538;2023-01-08T00:27:24;9.50;92.00
15991;DHT22;8100;50.994;4.538;2023-01-08T00:30:13;8.50;99.90
15991;DHT22;8100;50.994;4.538;2023-01-08T00:33:00;8.10;99.90
15991;DHT22;8100;50.994;4.538;2023-01-08T00:35:47;8.00;99.90
15991;DHT22;8100;50.994;4.538;2023-01-08T00:38:35;8.00;99.90
15991;DHT22;8100;50.994;4.538;2023-01-08T00:41:22;7.90;99.90
15991;DHT22;8100;50.994;4.538;2023-01-08T00:44:09;7.90;99.90
15991;DHT22;8100;50.994;4.538;2023-01-08T00:46:58;7.80;99.90
15991;DHT22;8100;50.994;4.538;2023-01-08T00:49:45;7.90;99.90
15991;DHT22;8100;50.994;4.538;2023-01-08T00:52:32;7.90;99.90
15991;DHT22;8100;50.994;4.538;2023-01-08T00:55:19;7.90;99.90
15991;DHT22;8100;50.994;4.538;2023-01-08T00:58:07;7.90;99.90
15991;DHT22;8100;50.994;4.538;2023-01-08T01:00:54;8.00;99.90
15991;DHT22;8100;50.994;4.538;2023-01-08T01:03:43;8.00;99.90
15991;DHT22;8100;50.994;4.538;2023-01-08T01:06:30;8.00;99.90
15991;DHT22;8100;50.994;4.538;2023-01-08T01:09:17;8.00;99.90
15991;DHT22;8100;50.994;4.538;2023-01-08T01:12:05;8.00;99.90
15991;DHT22;8100;50.994;4.538;2023-01-08T01:14:52;8.10;99.90
15991;DHT22;8100;50.994;4.538;2023-01-08T01:17:40;8.10;99.90
15991;DHT22;8100;50.994;4.538;2023-01-08T01:20:29;8.10;99.90
15991;DHT22;8100;50.994;4.538;2023-01-08T01:23:17;8.20;99.90
15991;DHT22;8100;50.994;4.538;2023-01-08T01:26:04;8.20;99.90
15991;DHT22;8100;50.994;4.538;2023-01-08T01:28:53;8.20;99.90
15991;DHT22;8100;50.994;4.538;2023-01-08T01:31:40;8.20;99.90
15991;DHT22;8100;50.994;4.538;2023-01-08T01:34:27;8.20;99.90
15991;DHT22;8100;50.994;4.538;2023-01-08T01:37:16;8.20;99.90
15991;DHT22;8100;50.994;4.538;2023-01-08T01:40:04;8.20;99.90
15991;DHT22;8100;50.994;4.538;2023-01-08T01:42:51;8.20;99.90
15991;DHT22;8100;50.994;4.538;2023-01-08T01:45:38;8.20;99.90
15991;DHT22;8100;50.994;4.538;2023-01-08T01:48:26;8.20;99.90
15991;DHT22;8100;50.994;4.538;2023-01-08T01:51:13;8.20;99.90
15991;DHT22;8100;50.994;4.538;2023-01-08T01:54:04;8.20;99.90
15991;DHT22;8100;50.994;4.538;2023-01-08T01:56:53;8.20;99.90
15991;DHT22;8100;50.994;4.538;2023-01-08T01:59:42;8.20;99.90
15991;DHT22;8100;50.994;4.538;2023-01-08T02:02:30;8.30;99.90
15991;DHT22;8100;50.994;4.538;2023-01-08T02:05:18;8.30;99.90
15991;DHT22;8100;50.994;4.538;2023-01-08T02:08:10;8.40;99.90
15991;DHT22;8100;50.994;4.538;2023-01-08T02:11:06;8.40;99.90
15991;DHT22;8100;50.994;4.538;2023-01-08T02:13:59;8.40;99.90
15991;DHT22;8100;50.994;4.538;2023-01-08T02:16:49;8.40;99.90
15991;DHT22;8100;50.994;4.538;2023-01-08T02:19:44;8.40;99.90
15991;DHT22;8100;50.994;4.538;2023-01-08T02:22:49;8.40;99.90
15991;DHT22;8100;50.994;4.538;2023-01-08T02:28:57;8.40;99.90
15991;DHT22;8100;50.994;4.538;2023-01-08T02:31:45;8.50;99.90
15991;DHT22;8100;50.994;4.538;2023-01-08T02:34:32;8.50;99.90
15991;DHT22;8100;50.994;4.538;2023-01-08T02:37:20;8.50;99.90
15991;DHT22;8100;50.994;4.538;2023-01-08T02:40:17;8.50;99.90
15991;DHT22;8100;50.994;4.538;2023-01-08T02:43:11;8.60;99.90
15991;DHT22;8100;50.994;4.538;2023-01-08T02:46:00;8.60;99.90
15991;DHT22;8100;50.994;4.538;2023-01-08T02:48:51;8.60;99.90
15991;DHT22;8100;50.994;4.538;2023-01-08T02:51:42;8.70;99.90
15991;DHT22;8100;50.994;4.538;2023-01-08T02:54:33;8.70;99.90
15991;DHT22;8100;50.994;4.538;2023-01-08T02:57:21;8.70;99.90
15991;DHT22;8100;50.994;4.538;2023-01-08T03:00:10;8.80;99.90
15991;DHT22;8100;50.994;4.538;2023-01-08T03:03:04;8.80;99.90
15991;DHT22;8100;50.994;4.538;2023-01-08T03:05:55;8.80;99.90
15991;DHT22;8100;50.994;4.538;2023-01-08T03:08:46;8.60;99.90
15991;DHT22;8100;50.994;4.538;2023-01-08T03:11:39;8.60;99.90
15991;DHT22;8100;50.994;4.538;2023-01-08T03:14:31;8.60;99.90
15991;DHT22;8100;50.994;4.538;2023-01-08T03:17:21;8.50;99.90
15991;DHT22;8100;50.994;4.538;2023-01-08T03:20:14;8.50;99.90
15991;DHT22;8100;50.994;4.538;2023-01-08T03:23:04;8.40;99.90
15991;DHT22;8100;50.994;4.538;2023-01-08T03:25:52;8.40;99.90
15991;DHT22;8100;50.994;4.538;2023-01-08T03:28:44;8.40;99.90
15991;DHT22;8100;50.994;4.538;2023-01-08T03:31:32;8.40;99.90
15991;DHT22;8100;50.994;4.538;2023-01-08T03:34:22;8.40;99.90
15991;DHT22;8100;50.994;4.538;2023-01-08T03:37:13;8.40;99.90
15991;DHT22;8100;50.994;4.538;2023-01-08T03:40:05;8.40;99.90
15991;DHT22;8100;50.994;4.538;2023-01-08T03:42:55;8.40;99.90
15991;DHT22;8100;50.994;4.538;2023-01-08T03:45:48;8.40;99.90
15991;DHT22;8100;50.994;4.538;2023-01-08T03:48:37;8.40;99.90
15991;DHT22;8100;50.994;4.538;2023-01-08T03:51:25;8.40;99.90
15991;DHT22;8100;50.994;4.538;2023-01-08T03:54:16;8.50;99.90
15991;DHT22;8100;50.994;4.538;2023-01-08T03:57:03;8.50;99.90
15991;DHT22;8100;50.994;4.538;2023-01-08T03:59:50;8.50;99.90
15991;DHT22;8100;50.994;4.538;2023-01-08T04:02:38;8.60;99.90
15991;DHT22;8100;50.994;4.538;2023-01-08T04:05:26;8.60;99.90
15991;DHT22;8100;50.994;4.538;2023-01-08T04:08:13;8.60;99.90
15991;DHT22;8100;50.994;4.538;2023-01-08T04:11:02;8.60;99.90
15991;DHT22;8100;50.994;4.538;2023-01-08T04:13:49;8.60;99.90
15991;DHT22;8100;50.994;4.538;2023-01-08T04:16:36;8.60;99.90
15991;DHT22;8100;50.994;4.538;2023-01-08T04:19:24;8.60;99.90
15991;DHT22;8100;50.994;4.538;2023-01-08T04:22:11;8.50;99.90
15991;DHT22;8100;50.994;4.538;2023-01-08T04:24:58;8.50;99.90
15991;DHT22;8100;50.994;4.538;2023-01-08T04:27:47;8.40;99.90
15991;DHT22;8100;50.994;4.538;2023-01-08T04:30:34;8.30;99.90
15991;DHT22;8100;50.994;4.538;2023-01-08T04:33:22;8.30;99.90
15991;DHT22;8100;50.994;4.538;2023-01-08T04:36:10;8.20;99.90
15991;DHT22;8100;50.994;4.538;2023-01-08T04:38:57;8.20;99.90
15991;DHT22;8100;50.994;4.538;2023-01-08T04:41:44;8.10;99.90
15991;DHT22;8100;50.994;4.538;2023-01-08T04:44:33;8.10;99.90
15991;DHT22;8100;50.994;4.538;2023-01-08T04:47:20;7.90;99.90
15991;DHT22;8100;50.994;4.538;2023-01-08T04:50:08;7.80;99.90
15991;DHT22;8100;50.994;4.538;2023-01-08T04:52:57;7.70;99.90
15991;DHT22;8100;50.994;4.538;2023-01-08T04:55:45;7.60;99.90
15991;DHT22;8100;50.994;4.538;2023-01-08T04:58:32;7.50;99.90
15991;DHT22;8100;50.994;4.538;2023-01-08T05:01:22;7.50;99.90
15991;DHT22;8100;50.994;4.538;2023-01-08T05:04:10;7.40;99.90
15991;DHT22;8100;50.994;4.538;2023-01-08T05:06:58;7.40;99.90
15991;DHT22;8100;50.994;4.538;2023-01-08T05:09:45;7.30;99.90
15991;DHT22;8100;50.994;4.538;2023-01-08T05:12:32;7.30;99.90
15991;DHT22;8100;50.994;4.538;2023-01-08T05:15:19;7.30;99.90
15991;DHT22;8100;50.994;4.538;2023-01-08T05:18:09;7.20;99.90
15991;DHT22;8100;50.994;4.538;2023-01-08T05:20:59;7.10;99.90
15991;DHT22;8100;50.994;4.538;2023-01-08T05:23:47;7.00;99.90
15991;DHT22;8100;50.994;4.538;2023-01-08T05:26:34;6.90;99.90
15991;DHT22;8100;50.994;4.538;2023-01-08T05:29:21;6.90;99.90
15991;DHT22;8100;50.994;4.538;2023-01-08T05:32:13;6.90;99.90
15991;DHT22;8100;50.994;4.538;2023-01-08T05:35:02;6.80;99.90
15991;DHT22;8100;50.994;4.538;2023-01-08T05:37:50;6.80;99.90
15991;DHT22;8100;50.994;4.538;2023-01-08T05:40:37;6.70;99.90
15991;DHT22;8100;50.994;4.538;2023-01-08T05:43:24;6.80;99.90
15991;DHT22;8100;50.994;4.538;2023-01-08T05:46:11;6.70;99.90
15991;DHT22;8100;50.994;4.538;2023-01-08T05:48:58;6.70;99.90
15991;DHT22;8100;50.994;4.538;2023-01-08T05:51:47;6.70;99.90
15991;DHT22;8100;50.994;4.538;2023-01-08T05:54:34;6.60;99.90
15991;DHT22;8100;50.994;4.538;2023-01-08T05:57:22;6.50;99.90
15991;DHT22;8100;50.994;4.538;2023-01-08T06:00:10;6.50;99.90
15991;DHT22;8100;50.994;4.538;2023-01-08T06:02:57;6.50;99.90
15991;DHT22;8100;50.994;4.538;2023-01-08T06:05:44;6.50;99.90
15991;DHT22;8100;50.994;4.538;2023-01-08T06:08:33;6.40;99.90
15991;DHT22;8100;50.994;4.538;2023-01-08T06:11:20;6.40;99.90
15991;DHT22;8100;50.994;4.538;2023-01-08T06:14:08;6.30;99.90
15991;DHT22;8100;50.994;4.538;2023-01-08T06:16:55;6.40;99.90
15991;DHT22;8100;50.994;4.538;2023-01-08T06:19:42;6.40;99.90
15991;DHT22;8100;50.994;4.538;2023-01-08T06:22:31;6.30;99.90
15991;DHT22;8100;50.994;4.538;2023-01-08T06:25:20;6.20;99.90
15991;DHT22;8100;50.994;4.538;2023-01-08T06:28:07;6.20;99.90
15991;DHT22;8100;50.994;4.538;2023-01-08T06:30:56;6.10;99.90
15991;DHT22;8100;50.994;4.538;2023-01-08T06:33:44;6.10;99.90
15991;DHT22;8100;50.994;4.538;2023-01-08T06:36:31;6.20;99.90
15991;DHT22;8100;50.994;4.538;2023-01-08T06:39:18;6.20;99.90
15991;DHT22;8100;50.994;4.538;2023-01-08T06:42:07;6.20;99.90
15991;DHT22;8100;50.994;4.538;2023-01-08T06:44:54;6.20;99.90
15991;DHT22;8100;50.994;4.538;2023-01-08T06:47:41;6.20;99.90
15991;DHT22;8100;50.994;4.538;2023-01-08T06:50:28;6.20;99.90
15991;DHT22;8100;50.994;4.538;2023-01-08T06:53:16;6.20;99.90
15991;DHT22;8100;50.994;4.538;2023-01-08T06:56:03;6.20;99.90
15991;DHT22;8100;50.994;4.538;2023-01-08T06:58:53;6.20;99.90
15991;DHT22;8100;50.994;4.538;2023-01-08T07:01:41;6.30;99.90
15991;DHT22;8100;50.994;4.538;2023-01-08T07:04:28;6.20;99.90
15991;DHT22;8100;50.994;4.538;2023-01-08T07:07:15;6.20;99.90
15991;DHT22;8100;50.994;4.538;2023-01-08T07:10:03;6.20;99.90
15991;DHT22;8100;50.994;4.538;2023-01-08T07:12:50;6.30;99.90
15991;DHT22;8100;50.994;4.538;2023-01-08T07:15:39;6.40;99.90
15991;DHT22;8100;50.994;4.538;2023-01-08T07:18:26;6.50;99.90
15991;DHT22;8100;50.994;4.538;2023-01-08T07:21:13;6.50;99.90
15991;DHT22;8100;50.994;4.538;2023-01-08T07:24:01;6.60;99.90
15991;DHT22;8100;50.994;4.538;2023-01-08T07:26:48;6.60;99.90
15991;DHT22;8100;50.994;4.538;2023-01-08T07:29:36;6.60;99.90
15991;DHT22;8100;50.994;4.538;2023-01-08T07:32:24;6.50;99.90
15991;DHT22;8100;50.994;4.538;2023-01-08T07:35:11;6.60;99.90
15991;DHT22;8100;50.994;4.538;2023-01-08T07:37:59;6.60;99.90
15991;DHT22;8100;50.994;4.538;2023-01-08T07:40:46;6.60;99.90
15991;DHT22;8100;50.994;4.538;2023-01-08T07:43:33;6.70;99.90
15991;DHT22;8100;50.994;4.538;2023-01-08T07:46:21;6.70;99.90
15991;DHT22;8100;50.994;4.538;2023-01-08T07:49:09;6.70;99.90
15991;DHT22;8100;50.994;4.538;2023-01-08T07:51:57;6.70;99.90
15991;DHT22;8100;50.994;4.538;2023-01-08T07:54:44;6.60;99.90
15991;DHT22;8100;50.994;4.538;2023-01-08T07:57:31;6.60;99.90
15991;DHT22;8100;50.994;4.538;2023-01-08T08:00:18;6.60;99.90
15991;DHT22;8100;50.994;4.538;2023-01-08T08:03:07;6.50;99.90
15991;DHT22;8100;50.994;4.538;2023-01-08T08:05:58;6.40;99.90
15991;DHT22;8100;50.994;4.538;2023-01-08T08:08:45;6.40;99.90
15991;DHT22;8100;50.994;4.538;2023-01-08T08:11:33;6.40;99.90
15991;DHT22;8100;50.994;4.538;2023-01-08T08:14:20;6.40;99.90
15991;DHT22;8100;50.994;4.538;2023-01-08T08:17:07;6.30;99.90
15991;DHT22;8100;50.994;4.538;2023-01-08T08:19:54;6.40;99.90
15991;DHT22;8100;50.994;4.538;2023-01-08T08:22:43;6.40;99.90
15991;DHT22;8100;50.994;4.538;2023-01-08T08:25:30;6.50;99.90
15991;DHT22;8100;50.994;4.538;2023-01-08T08:28:18;6.70;99.90
15991;DHT22;8100;50.994;4.538;2023-01-08T08:31:05;6.90;99.90
15991;DHT22;8100;50.994;4.538;2023-01-08T08:33:52;6.90;99.90
15991;DHT22;8100;50.994;4.538;2023-01-08T08:36:40;7.00;99.90
15991;DHT22;8100;50.994;4.538;2023-01-08T08:39:28;7.10;99.90
15991;DHT22;8100;50.994;4.538;2023-01-08T08:42:15;7.00;99.90
15991;DHT22;8100;50.994;4.538;2023-01-08T08:45:03;6.90;99.90
15991;DHT22;8100;50.994;4.538;2023-01-08T08:47:50;6.90;99.90
15991;DHT22;8100;50.994;4.538;2023-01-08T08:50:38;6.80;99.90
15991;DHT22;8100;50.994;4.538;2023-01-08T08:53:25;6.80;99.90
15991;DHT22;8100;50.994;4.538;2023-01-08T08:56:15;6.80;99.90
15991;DHT22;8100;50.994;4.538;2023-01-08T08:59:03;6.90;99.90
15991;DHT22;8100;50.994;4.538;2023-01-08T09:01:51;6.90;99.90
15991;DHT22;8100;50.994;4.538;2023-01-08T09:04:38;6.90;99.90
15991;DHT22;8100;50.994;4.538;2023-01-08T09:07:25;7.00;99.90
15991;DHT22;8100;50.994;4.538;2023-01-08T09:10:12;7.10;99.90
15991;DHT22;8100;50.994;4.538;2023-01-08T09:13:01;7.10;99.90
15991;DHT22;8100;50.994;4.538;2023-01-08T09:15:48;7.00;99.90
15991;DHT22;8100;50.994;4.538;2023-01-08T09:18:35;7.10;99.90
15991;DHT22;8100;50.994;4.538;2023-01-08T09:21:22;7.00;99.90
15991;DHT22;8100;50.994;4.538;2023-01-08T09:24:10;7.10;99.90
15991;DHT22;8100;50.994;4.538;2023-01-08T09:26:57;7.20;99.90
15991;DHT22;8100;50.994;4.538;2023-01-08T09:29:46;7.20;99.90
15991;DHT22;8100;50.994;4.538;2023-01-08T09:32:33;7.30;99.90
15991;DHT22;8100;50.994;4.538;2023-01-08T09:35:20;7.40;99.90
15991;DHT22;8100;50.994;4.538;2023-01-08T09:38:07;7.50;99.90
15991;DHT22;8100;50.994;4.538;2023-01-08T09:40:57;7.60;99.90
15991;DHT22;8100;50.994;4.538;2023-01-08T09:43:48;7.60;99.90
15991;DHT22;8100;50.994;4.538;2023-01-08T09:46:37;7.60;99.90
15991;DHT22;8100;50.994;4.538;2023-01-08T09:49:32;7.80;99.90
15991;DHT22;8100;50.994;4.538;2023-01-08T09:52:23;7.80;99.90
15991;DHT22;8100;50.994;4.538;2023-01-08T09:55:12;7.90;99.90
15991;DHT22;8100;50.994;4.538;2023-01-08T09:58:00;8.00;99.90
15991;DHT22;8100;50.994;4.538;2023-01-08T10:00:47;8.20;99.90
15991;DHT22;8100;50.994;4.538;2023-01-08T10:03:40;8.40;99.90
15991;DHT22;8100;50.994;4.538;2023-01-08T10:06:28;8.40;99.90
15991;DHT22;8100;50.994;4.538;2023-01-08T10:09:16;8.60;99.90
15991;DHT22;8100;50.994;4.538;2023-01-08T10:12:10;8.70;99.90
15991;DHT22;8100;50.994;4.538;2023-01-08T10:15:00;8.80;99.90
15991;DHT22;8100;50.994;4.538;2023-01-08T10:17:53;8.80;99.90
15991;DHT22;8100;50.994;4.538;2023-01-08T10:20:43;8.80;99.90
15991;DHT22;8100;50.994;4.538;2023-01-08T10:23:30;8.90;99.90
15991;DHT22;8100;50.994;4.538;2023-01-08T10:26:26;8.90;99.90
15991;DHT22;8100;50.994;4.538;2023-01-08T10:29:15;8.90;99.90
15991;DHT22;8100;50.994;4.538;2023-01-08T10:32:08;8.90;99.90
15991;DHT22;8100;50.994;4.538;2023-01-08T10:34:57;9.00;99.90
15991;DHT22;8100;50.994;4.538;2023-01-08T10:37:47;9.00;99.90
15991;DHT22;8100;50.994;4.538;2023-01-08T10:40:37;9.10;99.90
15991;DHT22;8100;50.994;4.538;2023-01-08T10:43:28;9.20;99.90
15991;DHT22;8100;50.994;4.538;2023-01-08T10:46:21;9.20;99.90
15991;DHT22;8100;50.994;4.538;2023-01-08T10:49:16;9.30;99.90
15991;DHT22;8100;50.994;4.538;2023-01-08T10:52:04;9.40;99.90
15991;DHT22;8100;50.994;4.538;2023-01-08T10:54:54;9.50;99.90
15991;DHT22;8100;50.994;4.538;2023-01-08T10:57:42;9.50;99.90
15991;DHT22;8100;50.994;4.538;2023-01-08T11:00:38;9.50;99.90
15991;DHT22;8100;50.994;4.538;2023-01-08T11:03:29;9.50;99.90
15991;DHT22;8100;50.994;4.538;2023-01-08T11:06:20;9.50;99.90
15991;DHT22;8100;50.994;4.538;2023-01-08T11:09:17;9.60;99.90
15991;DHT22;8100;50.994;4.538;2023-01-08T11:12:25;9.60;99.90
15991;DHT22;8100;50.994;4.538;2023-01-08T11:15:27;9.70;99.90
15991;DHT22;8100;50.994;4.538;2023-01-08T11:18:18;9.80;95.40
15991;DHT22;8100;50.994;4.538;2023-01-08T11:21:08;10.00;99.90
15991;DHT22;8100;50.994;4.538;2023-01-08T11:24:09;10.10;72.90
15991;DHT22;8100;50.994;4.538;2023-01-08T11:27:03;9.90;91.00
15991;DHT22;8100;50.994;4.538;2023-01-08T11:29:58;9.80;90.60
15991;DHT22;8100;50.994;4.538;2023-01-08T11:32:51;9.90;93.70
15991;DHT22;8100;50.994;4.538;2023-01-08T11:35:43;10.00;92.70
15991;DHT22;8100;50.994;4.538;2023-01-08T11:38:32;9.90;63.10
15991;DHT22;8100;50.994;4.538;2023-01-08T11:41:45;9.80;94.90
15991;DHT22;8100;50.994;4.538;2023-01-08T11:44:45;9.80;77.60
15991;DHT22;8100;50.994;4.538;2023-01-08T11:47:51;9.80;93.50
15991;DHT22;8100;50.994;4.538;2023-01-08T11:50:53;9.90;84.00
15991;DHT22;8100;50.994;4.538;2023-01-08T11:53:46;9.90;56.70
15991;DHT22;8100;50.994;4.538;2023-01-08T11:56:54;10.10;70.80
15991;DHT22;8100;50.994;4.538;2023-01-08T11:59:58;10.10;34.50
15991;DHT22;8100;50.994;4.538;2023-01-08T12:02:53;10.10;35.40
15991;DHT22;8100;50.994;4.538;2023-01-08T12:05:45;9.90;20.40
15991;DHT22;8100;50.994;4.538;2023-01-08T12:08:39;10.00;28.70
15991;DHT22;8100;50.994;4.538;2023-01-08T12:11:34;10.10;36.60
15991;DHT22;8100;50.994;4.538;2023-01-08T12:14:38;10.20;41.10
15991;DHT22;8100;50.994;4.538;2023-01-08T12:20:55;10.00;19.60
15991;DHT22;8100;50.994;4.538;2023-01-08T12:23:57;10.20;19.80
15991;DHT22;8100;50.994;4.538;2023-01-08T12:26:53;10.20;16.20
15991;DHT22;8100;50.994;4.538;2023-01-08T12:29:59;10.30;12.90
15991;DHT22;8100;50.994;4.538;2023-01-08T12:32:54;10.30;29.00
15991;DHT22;8100;50.994;4.538;2023-01-08T12:35:45;10.20;31.30
15991;DHT22;8100;50.994;4.538;2023-01-08T12:38:36;10.20;18.30
15991;DHT22;8100;50.994;4.538;2023-01-08T12:41:25;10.20;45.20
15991;DHT22;8100;50.994;4.538;2023-01-08T12:44:16;10.10;15.00
15991;DHT22;8100;50.994;4.538;2023-01-08T12:47:05;10.10;24.80
15991;DHT22;8100;50.994;4.538;2023-01-08T12:49:58;10.10;33.30
15991;DHT22;8100;50.994;4.538;2023-01-08T12:52:53;10.10;42.80
15991;DHT22;8100;50.994;4.538;2023-01-08T12:55:47;10.20;48.00
15991;DHT22;8100;50.994;4.538;2023-01-08T12:58:53;10.20;20.20
15991;DHT22;8100;50.994;4.538;2023-01-08T13:01:49;10.20;29.20
15991;DHT22;8100;50.994;4.538;2023-01-08T13:04:40;10.20;25.80
15991;DHT22;8100;50.994;4.538;2023-01-08T13:07:31;10.10;28.40
15991;DHT22;8100;50.994;4.538;2023-01-08T13:10:31;10.10;10.40
15991;DHT22;8100;50.994;4.538;2023-01-08T13:13:26;10.20;5.00
15991;DHT22;8100;50.994;4.538;2023-01-08T13:16:18;10.20;19.70
15991;DHT22;8100;50.994;4.538;2023-01-08T13:19:21;10.20;1.00
15991;DHT22;8100;50.994;4.538;2023-01-08T13:22:30;10.20;1.00
15991;DHT22;8100;50.994;4.538;2023-01-08T13:25:29;10.30;1.00
15991;DHT22;8100;50.994;4.538;2023-01-08T13:28:27;10.40;1.00
15991;DHT22;8100;50.994;4.538;2023-01-08T13:31:26;10.40;1.00
15991;DHT22;8100;50.994;4.538;2023-01-08T13:34:21;10.30;1.00
15991;DHT22;8100;50.994;4.538;2023-01-08T13:37:09;10.30;5.20
15991;DHT22;8100;50.994;4.538;2023-01-08T13:39:56;10.30;1.00
15991;DHT22;8100;50.994;4.538;2023-01-08T13:42:43;10.20;20.60
15991;DHT22;8100;50.994;4.538;2023-01-08T13:45:32;10.20;7.30
15991;DHT22;8100;50.994;4.538;2023-01-08T13:48:21;10.30;15.20
15991;DHT22;8100;50.994;4.538;2023-01-08T13:51:27;10.30;1.70
15991;DHT22;8100;50.994;4.538;2023-01-08T13:54:24;10.10;23.30
15991;DHT22;8100;50.994;4.538;2023-01-08T13:57:15;10.10;37.70
15991;DHT22;8100;50.994;4.538;2023-01-08T14:00:07;10.20;20.50
15991;DHT22;8100;50.994;4.538;2023-01-08T14:02:56;10.30;20.80
15991;DHT22;8100;50.994;4.538;2023-01-08T14:05:43;10.30;13.80
15991;DHT22;8100;50.994;4.538;2023-01-08T14:08:33;10.30;32.40
15991;DHT22;8100;50.994;4.538;2023-01-08T14:11:23;10.30;26.30
15991;DHT22;8100;50.994;4.538;2023-01-08T14:14:12;10.30;8.30
15991;DHT22;8100;50.994;4.538;2023-01-08T14:17:00;10.30;1.00
15991;DHT22;8100;50.994;4.538;2023-01-08T14:20:00;10.20;17.00
15991;DHT22;8100;50.994;4.538;2023-01-08T14:22:49;10.20;28.30
15991;DHT22;8100;50.994;4.538;2023-01-08T14:25:37;10.10;33.30
15991;DHT22;8100;50.994;4.538;2023-01-08T14:28:26;9.90;42.40
15991;DHT22;8100;50.994;4.538;2023-01-08T14:31:18;9.90;43.10
15991;DHT22;8100;50.994;4.538;2023-01-08T14:34:06;10.00;34.30
15991;DHT22;8100;50.994;4.538;2023-01-08T14:36:55;10.00;24.40
15991;DHT22;8100;50.994;4.538;2023-01-08T14:39:43;10.00;17.60
15991;DHT22;8100;50.994;4.538;2023-01-08T14:42:36;9.90;11.50
15991;DHT22;8100;50.994;4.538;2023-01-08T14:45:32;9.90;2.50
15991;DHT22;8100;50.994;4.538;2023-01-08T14:48:22;9.90;1.00
15991;DHT22;8100;50.994;4.538;2023-01-08T14:51:12;9.90;1.00
15991;DHT22;8100;50.994;4.538;2023-01-08T14:54:04;9.80;1.00
15991;DHT22;8100;50.994;4.538;2023-01-08T14:56:55;9.70;12.70
15991;DHT22;8100;50.994;4.538;2023-01-08T14:59:54;9.90;1.00
15991;DHT22;8100;50.994;4.538;2023-01-08T15:02:42;9.90;4.80
15991;DHT22;8100;50.994;4.538;2023-01-08T15:05:32;9.90;3.50
15991;DHT22;8100;50.994;4.538;2023-01-08T15:08:23;9.80;16.80
15991;DHT22;8100;50.994;4.538;2023-01-08T15:11:21;9.70;28.90
15991;DHT22;8100;50.994;4.538;2023-01-08T15:14:12;9.60;32.30
15991;DHT22;8100;50.994;4.538;2023-01-08T15:17:08;9.50;47.70
15991;DHT22;8100;50.994;4.538;2023-01-08T15:19:57;9.50;41.50
15991;DHT22;8100;50.994;4.538;2023-01-08T15:22:46;9.50;50.60
15991;DHT22;8100;50.994;4.538;2023-01-08T15:25:34;9.60;38.00
15991;DHT22;8100;50.994;4.538;2023-01-08T15:28:22;9.60;25.50
15991;DHT22;8100;50.994;4.538;2023-01-08T15:31:22;9.70;25.50
15991;DHT22;8100;50.994;4.538;2023-01-08T15:34:10;9.70;38.10
15991;DHT22;8100;50.994;4.538;2023-01-08T15:36:57;9.70;25.40
15991;DHT22;8100;50.994;4.538;2023-01-08T15:39:44;9.60;33.10
15991;DHT22;8100;50.994;4.538;2023-01-08T15:42:32;9.70;31.90
15991;DHT22;8100;50.994;4.538;2023-01-08T15:45:39;9.60;33.30
15991;DHT22;8100;50.994;4.538;2023-01-08T15:48:26;9.50;30.90
15991;DHT22;8100;50.994;4.538;2023-01-08T15:51:14;9.40;52.70
15991;DHT22;8100;50.994;4.538;2023-01-08T15:54:03;9.40;47.80
15991;DHT22;8100;50.994;4.538;2023-01-08T15:56:51;9.40;53.30
15991;DHT22;8100;50.994;4.538;2023-01-08T15:59:39;9.50;49.60
15991;DHT22;8100;50.994;4.538;2023-01-08T16:02:29;9.50;36.70
15991;DHT22;8100;50.994;4.538;2023-01-08T16:05:17;9.50;42.30
15991;DHT22;8100;50.994;4.538;2023-01-08T16:08:05;9.50;43.50
15991;DHT22;8100;50.994;4.538;2023-01-08T16:10:52;9.50;48.90
15991;DHT22;8100;50.994;4.538;2023-01-08T16:13:39;9.40;55.70
15991;DHT22;8100;50.994;4.538;2023-01-08T16:16:26;9.40;60.60
15991;DHT22;8100;50.994;4.538;2023-01-08T16:19:15;9.40;76.70
15991;DHT22;8100;50.994;4.538;2023-01-08T16:22:02;9.40;68.70
15991;DHT22;8100;50.994;4.538;2023-01-08T16:24:49;9.40;77.00
15991;DHT22;8100;50.994;4.538;2023-01-08T16:27:37;9.40;81.60
15991;DHT22;8100;50.994;4.538;2023-01-08T16:30:25;9.30;84.30
15991;DHT22;8100;50.994;4.538;2023-01-08T16:33:12;9.30;95.30
15991;DHT22;8100;50.994;4.538;2023-01-08T16:36:02;9.30;89.50
15991;DHT22;8100;50.994;4.538;2023-01-08T16:38:50;9.30;94.00
15991;DHT22;8100;50.994;4.538;2023-01-08T16:41:37;9.30;99.00
15991;DHT22;8100;50.994;4.538;2023-01-08T16:44:25;9.30;99.90
15991;DHT22;8100;50.994;4.538;2023-01-08T16:47:13;9.20;99.90
15991;DHT22;8100;50.994;4.538;2023-01-08T16:50:00;9.00;99.90
15991;DHT22;8100;50.994;4.538;2023-01-08T16:52:49;8.90;99.90
15991;DHT22;8100;50.994;4.538;2023-01-08T16:55:36;8.80;99.90
15991;DHT22;8100;50.994;4.538;2023-01-08T16:58:23;8.70;99.90
15991;DHT22;8100;50.994;4.538;2023-01-08T17:01:11;8.60;99.90
15991;DHT22;8100;50.994;4.538;2023-01-08T17:03:58;8.60;99.90
15991;DHT22;8100;50.994;4.538;2023-01-08T17:06:45;8.70;99.90
15991;DHT22;8100;50.994;4.538;2023-01-08T17:09:34;8.60;99.90
15991;DHT22;8100;50.994;4.538;2023-01-08T17:12:21;8.50;99.90
15991;DHT22;8100;50.994;4.538;2023-01-08T17:15:09;8.50;99.90
15991;DHT22;8100;50.994;4.538;2023-01-08T17:17:56;8.40;99.90
15991;DHT22;8100;50.994;4.538;2023-01-08T17:20:50;8.40;99.90
15991;DHT22;8100;50.994;4.538;2023-01-08T17:23:38;8.30;99.90
15991;DHT22;8100;50.994;4.538;2023-01-08T17:26:27;8.30;99.90
15991;DHT22;8100;50.994;4.538;2023-01-08T17:29:14;8.40;99.90
15991;DHT22;8100;50.994;4.538;2023-01-08T17:32:01;8.50;99.90
15991;DHT22;8100;50.994;4.538;2023-01-08T17:34:48;8.70;99.90
15991;DHT22;8100;50.994;4.538;2023-01-08T17:37:36;8.70;99.90
15991;DHT22;8100;50.994;4.538;2023-01-08T17:40:23;8.70;99.90
15991;DHT22;8100;50.994;4.538;2023-01-08T17:43:12;8.70;99.90
15991;DHT22;8100;50.994;4.538;2023-01-08T17:46:00;8.80;99.90
15991;DHT22;8100;50.994;4.538;2023-01-08T17:48:48;8.90;99.90
15991;DHT22;8100;50.994;4.538;2023-01-08T17:51:35;8.90;99.90
15991;DHT22;8100;50.994;4.538;2023-01-08T17:54:23;9.00;99.90
15991;DHT22;8100;50.994;4.538;2023-01-08T17:57:10;9.00;99.90
15991;DHT22;8100;50.994;4.538;2023-01-08T17:59:59;9.00;99.90
15991;DHT22;8100;50.994;4.538;2023-01-08T18:02:46;9.00;99.90
15991;DHT22;8100;50.994;4.538;2023-01-08T18:05:34;8.90;99.90
15991;DHT22;8100;50.994;4.538;2023-01-08T18:08:21;9.00;99.90
15991;DHT22;8100;50.994;4.538;2023-01-08T18:11:11;9.00;99.90
15991;DHT22;8100;50.994;4.538;2023-01-08T18:14:00;9.00;99.90
15991;DHT22;8100;50.994;4.538;2023-01-08T18:16:49;8.90;99.90
15991;DHT22;8100;50.994;4.538;2023-01-08T18:19:38;8.90;99.90
15991;DHT22;8100;50.994;4.538;2023-01-08T18:22:25;8.70;99.90
15991;DHT22;8100;50.994;4.538;2023-01-08T18:25:12;8.60;99.90
15991;DHT22;8100;50.994;4.538;2023-01-08T18:27:59;8.60;99.90
15991;DHT22;8100;50.994;4.538;2023-01-08T18:30:47;8.60;99.90
15991;DHT22;8100;50.994;4.538;2023-01-08T18:33:36;8.50;99.90